sensor_id;sensor_type;location;lat;lon;timestamp;P1;durP1;ratioP1;P2;durP2;ratioP2
62610;SDS011;48683;48.084;17.272;2022-08-19T16:17:54;13.18;;;4.40;;
62610;SDS011;48683;48.084;17.272;2022-08-19T16:22:46;15.50;;;4.00;;
62610;SDS011;48683;48.084;17.272;2022-08-19T16:25:11;13.80;;;3.88;;
62610;SDS011;48683;48.084;17.272;2022-08-19T16:27:38;18.02;;;4.82;;
62610;SDS011;48683;48.084;17.272;2022-08-19T16:30:04;14.70;;;4.95;;
62610;SDS011;48683;48.084;17.272;2022-08-19T16:32:30;12.80;;;5.03;;
62610;SDS011;48683;48.084;17.272;2022-08-19T16:34:55;18.90;;;4.53;;
62610;SDS011;48683;48.084;17.272;2022-08-19T16:37:21;12.50;;;3.93;;
62610;SDS011;48683;48.084;17.272;2022-08-19T16:39:47;12.25;;;4.00;;
62610;SDS011;48683;48.084;17.272;2022-08-19T16:42:13;14.60;;;3.93;;
62610;SDS011;48683;48.084;17.272;2022-08-19T16:47:05;12.18;;;3.72;;
62610;SDS011;48683;48.084;17.272;2022-08-19T16:49:31;22.03;;;4.80;;
62610;SDS011;48683;48.084;17.272;2022-08-19T16:51:56;13.87;;;3.80;;
62610;SDS011;48683;48.084;17.272;2022-08-19T16:54:22;19.50;;;5.10;;
62610;SDS011;48683;48.084;17.272;2022-08-19T16:56:47;16.20;;;4.53;;
62610;SDS011;48683;48.084;17.272;2022-08-19T16:59:15;16.35;;;5.78;;
62610;SDS011;48683;48.084;17.272;2022-08-19T17:01:41;20.13;;;6.55;;
62610;SDS011;48683;48.084;17.272;2022-08-19T17:09:00;26.63;;;7.53;;
62610;SDS011;48683;48.084;17.272;2022-08-19T17:11:28;27.00;;;7.50;;
62610;SDS011;48683;48.084;17.272;2022-08-19T17:13:56;16.20;;;5.30;;
62610;SDS011;48683;48.084;17.272;2022-08-19T17:16:24;18.02;;;5.40;;
62610;SDS011;48683;48.084;17.272;2022-08-19T17:18:52;16.13;;;4.97;;
62610;SDS011;48683;48.084;17.272;2022-08-19T17:21:20;14.50;;;4.72;;
62610;SDS011;48683;48.084;17.272;2022-08-19T17:23:46;15.25;;;4.47;;
62610;SDS011;48683;48.084;17.272;2022-08-19T17:26:14;13.77;;;4.63;;
62610;SDS011;48683;48.084;17.272;2022-08-19T17:28:41;14.95;;;5.05;;
62610;SDS011;48683;48.084;17.272;2022-08-19T17:31:07;12.40;;;5.95;;
62610;SDS011;48683;48.084;17.272;2022-08-19T17:33:32;15.10;;;5.00;;
62610;SDS011;48683;48.084;17.272;2022-08-19T17:35:58;15.93;;;6.13;;
62610;SDS011;48683;48.084;17.272;2022-08-19T17:38:24;16.27;;;5.18;;
62610;SDS011;48683;48.084;17.272;2022-08-19T17:40:50;16.27;;;5.85;;
62610;SDS011;48683;48.084;17.272;2022-08-19T17:43:16;14.73;;;5.77;;
62610;SDS011;48683;48.084;17.272;2022-08-19T17:45:43;18.65;;;6.13;;
62610;SDS011;48683;48.084;17.272;2022-08-19T17:48:09;14.20;;;5.32;;
62610;SDS011;48683;48.084;17.272;2022-08-19T17:50:35;20.23;;;5.40;;
62610;SDS011;48683;48.084;17.272;2022-08-19T17:53:02;22.17;;;5.63;;
62610;SDS011;48683;48.084;17.272;2022-08-19T17:55:28;12.82;;;5.63;;
62610;SDS011;48683;48.084;17.272;2022-08-19T17:57:54;13.00;;;4.80;;
62610;SDS011;48683;48.084;17.272;2022-08-19T18:00:20;15.07;;;4.78;;
62610;SDS011;48683;48.084;17.272;2022-08-19T18:02:47;12.35;;;5.38;;
62610;SDS011;48683;48.084;17.272;2022-08-19T18:05:15;17.02;;;5.30;;
62610;SDS011;48683;48.084;17.272;2022-08-19T18:07:44;18.13;;;6.18;;
62610;SDS011;48683;48.084;17.272;2022-08-19T18:10:10;14.90;;;5.57;;
62610;SDS011;48683;48.084;17.272;2022-08-19T18:12:36;18.27;;;5.53;;
62610;SDS011;48683;48.084;17.272;2022-08-19T18:15:03;17.48;;;4.70;;
62610;SDS011;48683;48.084;17.272;2022-08-19T18:17:31;19.75;;;5.50;;
62610;SDS011;48683;48.084;17.272;2022-08-19T18:19:57;13.00;;;4.95;;
62610;SDS011;48683;48.084;17.272;2022-08-19T18:22:27;19.47;;;4.97;;
62610;SDS011;48683;48.084;17.272;2022-08-19T18:24:55;14.95;;;5.25;;
62610;SDS011;48683;48.084;17.272;2022-08-19T18:27:21;16.48;;;5.55;;
62610;SDS011;48683;48.084;17.272;2022-08-19T18:29:47;15.52;;;5.63;;
62610;SDS011;48683;48.084;17.272;2022-08-19T18:32:14;25.63;;;5.83;;
62610;SDS011;48683;48.084;17.272;2022-08-19T18:34:41;12.82;;;5.70;;
62610;SDS011;48683;48.084;17.272;2022-08-19T18:37:08;12.82;;;4.95;;
62610;SDS011;48683;48.084;17.272;2022-08-19T18:39:34;17.80;;;5.43;;
62610;SDS011;48683;48.084;17.272;2022-08-19T18:42:18;15.57;;;5.63;;
62610;SDS011;48683;48.084;17.272;2022-08-19T18:45:03;21.17;;;5.72;;
62610;SDS011;48683;48.084;17.272;2022-08-19T18:47:48;11.18;;;5.05;;
62610;SDS011;48683;48.084;17.272;2022-08-19T18:50:32;22.55;;;6.07;;
62610;SDS011;48683;48.084;17.272;2022-08-19T18:52:58;15.60;;;6.00;;
62610;SDS011;48683;48.084;17.272;2022-08-19T18:55:23;18.60;;;5.50;;
62610;SDS011;48683;48.084;17.272;2022-08-19T18:57:49;18.00;;;6.50;;
62610;SDS011;48683;48.084;17.272;2022-08-19T19:00:15;15.07;;;5.87;;
62610;SDS011;48683;48.084;17.272;2022-08-19T19:02:40;16.60;;;6.40;;
62610;SDS011;48683;48.084;17.272;2022-08-19T19:05:06;14.13;;;6.17;;
62610;SDS011;48683;48.084;17.272;2022-08-19T19:07:32;19.20;;;6.18;;
62610;SDS011;48683;48.084;17.272;2022-08-19T19:09:59;12.93;;;5.97;;
62610;SDS011;48683;48.084;17.272;2022-08-19T19:12:24;18.10;;;6.70;;
62610;SDS011;48683;48.084;17.272;2022-08-19T19:14:53;22.67;;;6.68;;
62610;SDS011;48683;48.084;17.272;2022-08-19T19:17:19;19.43;;;6.00;;
62610;SDS011;48683;48.084;17.272;2022-08-19T19:19:52;19.00;;;6.00;;
62610;SDS011;48683;48.084;17.272;2022-08-19T19:22:18;17.80;;;6.90;;
62610;SDS011;48683;48.084;17.272;2022-08-19T19:24:45;17.08;;;6.15;;
62610;SDS011;48683;48.084;17.272;2022-08-19T19:27:11;21.97;;;6.07;;
62610;SDS011;48683;48.084;17.272;2022-08-19T19:29:38;17.55;;;6.35;;
62610;SDS011;48683;48.084;17.272;2022-08-19T19:34:31;13.90;;;6.22;;
62610;SDS011;48683;48.084;17.272;2022-08-19T19:36:57;17.15;;;6.20;;
62610;SDS011;48683;48.084;17.272;2022-08-19T19:39:22;18.30;;;7.43;;
62610;SDS011;48683;48.084;17.272;2022-08-19T19:41:48;19.07;;;6.80;;
62610;SDS011;48683;48.084;17.272;2022-08-19T19:44:13;20.47;;;5.47;;
62610;SDS011;48683;48.084;17.272;2022-08-19T19:46:39;16.13;;;5.90;;
62610;SDS011;48683;48.084;17.272;2022-08-19T19:49:06;18.80;;;6.25;;
62610;SDS011;48683;48.084;17.272;2022-08-19T19:51:32;13.93;;;5.85;;
62610;SDS011;48683;48.084;17.272;2022-08-19T19:53:59;16.98;;;7.18;;
62610;SDS011;48683;48.084;17.272;2022-08-19T19:56:25;15.68;;;6.00;;
62610;SDS011;48683;48.084;17.272;2022-08-19T19:58:51;16.00;;;6.73;;
62610;SDS011;48683;48.084;17.272;2022-08-19T20:01:17;18.45;;;6.63;;
62610;SDS011;48683;48.084;17.272;2022-08-19T20:03:44;15.65;;;6.07;;
62610;SDS011;48683;48.084;17.272;2022-08-19T20:06:11;16.00;;;5.97;;
62610;SDS011;48683;48.084;17.272;2022-08-19T20:08:38;16.23;;;6.78;;
62610;SDS011;48683;48.084;17.272;2022-08-19T20:11:32;12.27;;;6.22;;
62610;SDS011;48683;48.084;17.272;2022-08-19T20:14:00;15.95;;;5.47;;
62610;SDS011;48683;48.084;17.272;2022-08-19T20:16:28;15.15;;;6.13;;
62610;SDS011;48683;48.084;17.272;2022-08-19T20:18:55;11.20;;;5.75;;
62610;SDS011;48683;48.084;17.272;2022-08-19T20:21:22;23.38;;;7.40;;
62610;SDS011;48683;48.084;17.272;2022-08-19T20:23:48;12.85;;;5.57;;
62610;SDS011;48683;48.084;17.272;2022-08-19T20:26:13;15.07;;;7.30;;
62610;SDS011;48683;48.084;17.272;2022-08-19T20:28:42;14.82;;;7.38;;
62610;SDS011;48683;48.084;17.272;2022-08-19T20:31:07;15.30;;;6.50;;
62610;SDS011;48683;48.084;17.272;2022-08-19T20:33:33;14.17;;;5.77;;
62610;SDS011;48683;48.084;17.272;2022-08-19T20:35:58;19.90;;;7.30;;
62610;SDS011;48683;48.084;17.272;2022-08-19T20:38:23;16.70;;;6.80;;
62610;SDS011;48683;48.084;17.272;2022-08-19T20:40:49;16.90;;;6.13;;
62610;SDS011;48683;48.084;17.272;2022-08-19T20:43:15;16.15;;;6.22;;
62610;SDS011;48683;48.084;17.272;2022-08-19T20:45:41;18.67;;;6.47;;
62610;SDS011;48683;48.084;17.272;2022-08-19T20:48:07;12.17;;;6.33;;
62610;SDS011;48683;48.084;17.272;2022-08-19T20:50:34;19.13;;;6.60;;
62610;SDS011;48683;48.084;17.272;2022-08-19T20:53:01;20.00;;;7.70;;
62610;SDS011;48683;48.084;17.272;2022-08-19T20:55:33;21.30;;;7.82;;
62610;SDS011;48683;48.084;17.272;2022-08-19T20:57:59;17.10;;;8.00;;
62610;SDS011;48683;48.084;17.272;2022-08-19T21:00:24;22.40;;;7.70;;
62610;SDS011;48683;48.084;17.272;2022-08-19T21:02:50;22.43;;;7.97;;
62610;SDS011;48683;48.084;17.272;2022-08-19T21:05:15;18.63;;;7.60;;
62610;SDS011;48683;48.084;17.272;2022-08-19T21:07:40;18.63;;;7.93;;
62610;SDS011;48683;48.084;17.272;2022-08-19T21:10:06;17.27;;;7.97;;
62610;SDS011;48683;48.084;17.272;2022-08-19T21:12:32;23.97;;;8.70;;
62610;SDS011;48683;48.084;17.272;2022-08-19T21:14:57;24.77;;;7.80;;
62610;SDS011;48683;48.084;17.272;2022-08-19T21:17:22;12.00;;;6.20;;
62610;SDS011;48683;48.084;17.272;2022-08-19T21:19:48;15.07;;;7.40;;
62610;SDS011;48683;48.084;17.272;2022-08-19T21:22:13;15.80;;;6.37;;
62610;SDS011;48683;48.084;17.272;2022-08-19T21:24:38;18.70;;;7.90;;
62610;SDS011;48683;48.084;17.272;2022-08-19T21:27:06;17.77;;;6.85;;
62610;SDS011;48683;48.084;17.272;2022-08-19T21:29:31;12.30;;;6.00;;
62610;SDS011;48683;48.084;17.272;2022-08-19T21:31:59;14.07;;;5.75;;
62610;SDS011;48683;48.084;17.272;2022-08-19T21:34:25;17.23;;;7.53;;
62610;SDS011;48683;48.084;17.272;2022-08-19T21:36:50;20.80;;;7.93;;
62610;SDS011;48683;48.084;17.272;2022-08-19T21:39:15;18.80;;;7.50;;
62610;SDS011;48683;48.084;17.272;2022-08-19T21:41:41;24.43;;;9.27;;
62610;SDS011;48683;48.084;17.272;2022-08-19T21:44:06;23.60;;;11.10;;
62610;SDS011;48683;48.084;17.272;2022-08-19T21:46:31;22.70;;;8.43;;
62610;SDS011;48683;48.084;17.272;2022-08-19T21:48:57;21.10;;;8.73;;
62610;SDS011;48683;48.084;17.272;2022-08-19T21:51:22;21.23;;;8.77;;
62610;SDS011;48683;48.084;17.272;2022-08-19T21:53:48;16.37;;;8.93;;
62610;SDS011;48683;48.084;17.272;2022-08-19T21:56:13;18.57;;;8.67;;
62610;SDS011;48683;48.084;17.272;2022-08-19T21:58:38;16.67;;;9.00;;
62610;SDS011;48683;48.084;17.272;2022-08-19T22:01:05;18.33;;;9.50;;
62610;SDS011;48683;48.084;17.272;2022-08-19T22:06:01;18.90;;;10.05;;
62610;SDS011;48683;48.084;17.272;2022-08-19T22:08:26;20.52;;;9.68;;
62610;SDS011;48683;48.084;17.272;2022-08-19T22:10:52;14.67;;;10.03;;
62610;SDS011;48683;48.084;17.272;2022-08-19T22:13:18;23.23;;;10.33;;
62610;SDS011;48683;48.084;17.272;2022-08-19T22:15:44;17.77;;;9.77;;
62610;SDS011;48683;48.084;17.272;2022-08-19T22:20:38;17.48;;;9.52;;
62610;SDS011;48683;48.084;17.272;2022-08-19T22:23:04;20.50;;;10.35;;
62610;SDS011;48683;48.084;17.272;2022-08-19T22:25:32;19.50;;;9.90;;
62610;SDS011;48683;48.084;17.272;2022-08-19T22:28:01;19.95;;;10.43;;
62610;SDS011;48683;48.084;17.272;2022-08-19T22:30:29;18.88;;;10.52;;
62610;SDS011;48683;48.084;17.272;2022-08-19T22:32:57;21.88;;;9.90;;
62610;SDS011;48683;48.084;17.272;2022-08-19T22:35:27;23.25;;;9.50;;
62610;SDS011;48683;48.084;17.272;2022-08-19T22:37:55;17.95;;;9.57;;
62610;SDS011;48683;48.084;17.272;2022-08-19T22:40:22;20.30;;;10.48;;
62610;SDS011;48683;48.084;17.272;2022-08-19T22:42:57;21.05;;;9.50;;
62610;SDS011;48683;48.084;17.272;2022-08-19T22:45:24;14.65;;;9.20;;
62610;SDS011;48683;48.084;17.272;2022-08-19T22:47:50;19.67;;;10.63;;
62610;SDS011;48683;48.084;17.272;2022-08-19T22:50:15;20.87;;;9.57;;
62610;SDS011;48683;48.084;17.272;2022-08-19T22:52:40;19.53;;;9.93;;
62610;SDS011;48683;48.084;17.272;2022-08-19T22:55:07;20.75;;;10.60;;
62610;SDS011;48683;48.084;17.272;2022-08-19T22:57:33;18.48;;;9.25;;
62610;SDS011;48683;48.084;17.272;2022-08-19T22:59:59;18.97;;;9.37;;
62610;SDS011;48683;48.084;17.272;2022-08-19T23:02:29;27.05;;;10.15;;
62610;SDS011;48683;48.084;17.272;2022-08-19T23:04:59;18.58;;;9.90;;
62610;SDS011;48683;48.084;17.272;2022-08-19T23:07:26;18.15;;;10.23;;
62610;SDS011;48683;48.084;17.272;2022-08-19T23:09:52;18.50;;;10.57;;
62610;SDS011;48683;48.084;17.272;2022-08-19T23:12:31;18.63;;;10.80;;
62610;SDS011;48683;48.084;17.272;2022-08-19T23:15:03;18.73;;;10.40;;
62610;SDS011;48683;48.084;17.272;2022-08-19T23:17:34;19.83;;;10.55;;
62610;SDS011;48683;48.084;17.272;2022-08-19T23:20:00;20.90;;;9.97;;
62610;SDS011;48683;48.084;17.272;2022-08-19T23:22:26;19.27;;;10.07;;
62610;SDS011;48683;48.084;17.272;2022-08-19T23:24:53;21.35;;;10.52;;
62610;SDS011;48683;48.084;17.272;2022-08-19T23:27:18;17.37;;;10.93;;
62610;SDS011;48683;48.084;17.272;2022-08-19T23:30:02;16.17;;;10.27;;
62610;SDS011;48683;48.084;17.272;2022-08-19T23:32:55;19.73;;;9.98;;
62610;SDS011;48683;48.084;17.272;2022-08-19T23:35:35;24.83;;;9.98;;
62610;SDS011;48683;48.084;17.272;2022-08-19T23:38:03;17.50;;;9.73;;
62610;SDS011;48683;48.084;17.272;2022-08-19T23:40:30;26.88;;;10.57;;
62610;SDS011;48683;48.084;17.272;2022-08-19T23:42:56;16.80;;;10.47;;
62610;SDS011;48683;48.084;17.272;2022-08-19T23:45:23;22.83;;;10.02;;
62610;SDS011;48683;48.084;17.272;2022-08-19T23:47:49;21.35;;;9.80;;
62610;SDS011;48683;48.084;17.272;2022-08-19T23:50:14;20.90;;;10.17;;
62610;SDS011;48683;48.084;17.272;2022-08-19T23:52:42;16.47;;;9.57;;
62610;SDS011;48683;48.084;17.272;2022-08-19T23:55:10;20.17;;;9.70;;
62610;SDS011;48683;48.084;17.272;2022-08-19T23:57:36;19.27;;;9.13;;
